createdAt,value
2019-04-05T00:00:15.566Z,13.83
2019-04-05T00:01:15.562Z,13.92
2019-04-05T00:02:15.560Z,13.83
2019-04-05T00:03:15.556Z,13.86
2019-04-05T00:04:15.550Z,13.72
2019-04-05T00:05:15.549Z,13.74
2019-04-05T00:06:15.544Z,13.77
2019-04-05T00:07:15.540Z,13.72
2019-04-05T00:08:15.537Z,13.77
2019-04-05T00:09:15.532Z,13.79
2019-04-05T00:10:15.527Z,13.67
2019-04-05T00:11:15.525Z,13.65
2019-04-05T00:12:15.521Z,13.77
2019-04-05T00:13:15.518Z,13.71
2019-04-05T00:14:15.513Z,13.81
2019-04-05T00:15:16.148Z,13.68
2019-04-05T00:16:15.504Z,13.85
2019-04-05T00:17:15.500Z,13.79
2019-04-05T00:18:15.498Z,13.75
2019-04-05T00:19:15.494Z,13.68
2019-04-05T00:20:15.491Z,13.67
2019-04-05T00:21:15.487Z,13.71
2019-04-05T00:22:15.480Z,13.65
2019-04-05T00:23:15.482Z,13.62
2019-04-05T00:24:15.477Z,13.70
2019-04-05T00:25:15.543Z,13.63
2019-04-05T00:26:15.466Z,13.71
2019-04-05T00:27:15.463Z,13.71
2019-04-05T00:28:15.462Z,13.68
2019-04-05T00:29:15.456Z,13.65
2019-04-05T00:30:15.456Z,13.67
2019-04-05T00:31:15.451Z,13.63
2019-04-05T00:32:15.485Z,13.65
2019-04-05T00:33:15.438Z,13.65
2019-04-05T00:34:15.438Z,13.70
2019-04-05T00:35:15.436Z,13.62
2019-04-05T00:36:15.424Z,13.71
2019-04-05T00:37:15.422Z,13.67
2019-04-05T00:38:15.419Z,13.65
2019-04-05T00:39:15.412Z,13.67
2019-04-05T00:40:15.414Z,13.65
2019-04-05T00:41:15.405Z,13.68
2019-04-05T00:42:15.405Z,13.67
2019-04-05T00:43:15.399Z,13.60
2019-04-05T00:44:15.392Z,13.62
2019-04-05T00:45:27.140Z,13.62
2019-04-05T00:46:15.391Z,13.53
2019-04-05T00:47:15.382Z,13.56
2019-04-05T00:48:15.379Z,13.52
2019-04-05T00:49:15.374Z,13.50
2019-04-05T00:50:15.371Z,13.53
2019-04-05T00:51:15.366Z,13.54
2019-04-05T00:52:15.393Z,13.57
2019-04-05T00:53:15.357Z,13.50
2019-04-05T00:54:15.353Z,13.47
2019-04-05T00:55:15.358Z,13.54
2019-04-05T00:56:15.346Z,13.47
2019-04-05T00:57:15.343Z,13.52
2019-04-05T00:58:15.387Z,13.56
2019-04-05T00:59:15.341Z,13.57
2019-04-05T01:00:15.328Z,13.53
2019-04-05T01:01:15.329Z,13.47
2019-04-05T01:02:15.319Z,13.37
2019-04-05T01:03:15.315Z,13.20
2019-04-05T01:04:15.307Z,13.23
2019-04-05T01:05:15.306Z,13.12
2019-04-05T01:06:15.307Z,13.11
2019-04-05T01:07:15.298Z,13.20
2019-04-05T01:08:15.292Z,13.31
2019-04-05T01:09:15.289Z,13.20
2019-04-05T01:10:15.285Z,13.19
2019-04-05T01:11:15.282Z,13.23
2019-04-05T01:12:15.276Z,13.23
2019-04-05T01:13:15.273Z,13.25
2019-04-05T01:14:15.273Z,13.23
2019-04-05T01:15:15.264Z,13.12
2019-04-05T01:16:15.258Z,13.12
2019-04-05T01:17:24.372Z,13.13
2019-04-05T01:18:15.249Z,13.13
2019-04-05T01:19:15.264Z,13.09
2019-04-05T01:20:15.241Z,13.13
2019-04-05T01:21:15.238Z,13.11
2019-04-05T01:22:15.241Z,13.12
2019-04-05T01:23:15.230Z,13.08
2019-04-05T01:24:15.221Z,13.01
2019-04-05T01:25:15.237Z,13.00
2019-04-05T01:26:15.213Z,12.91
2019-04-05T01:27:15.212Z,12.97
2019-04-05T01:28:15.208Z,12.97
2019-04-05T01:29:15.205Z,12.93
2019-04-05T01:30:15.197Z,12.93
2019-04-05T01:31:15.192Z,12.86
2019-04-05T01:32:15.187Z,12.82
2019-04-05T01:33:15.182Z,12.85
2019-04-05T01:34:15.180Z,12.85
2019-04-05T01:35:15.173Z,12.86
2019-04-05T01:36:15.169Z,12.83
2019-04-05T01:37:15.172Z,12.80
2019-04-05T01:38:15.171Z,12.82
2019-04-05T01:39:15.155Z,12.73
2019-04-05T01:40:15.151Z,12.73
2019-04-05T01:41:15.144Z,12.65
2019-04-05T01:42:15.144Z,12.67
2019-04-05T01:43:15.139Z,12.70
2019-04-05T01:44:15.127Z,12.76
2019-04-05T01:45:15.153Z,12.67
2019-04-05T01:46:15.123Z,12.60
2019-04-05T01:47:15.118Z,12.62
2019-04-05T01:48:15.111Z,12.62
2019-04-05T01:49:15.114Z,12.62
2019-04-05T01:50:15.105Z,12.62
2019-04-05T01:51:15.098Z,12.60
2019-04-05T01:52:15.095Z,12.62
2019-04-05T01:53:15.092Z,12.54
2019-04-05T01:54:15.084Z,12.57
2019-04-05T01:55:15.081Z,12.55
2019-04-05T01:56:15.073Z,12.62
2019-04-05T01:57:15.072Z,12.78
2019-04-05T01:58:15.067Z,12.76
2019-04-05T01:59:15.066Z,12.60
2019-04-05T02:00:15.063Z,12.64
2019-04-05T02:01:15.051Z,12.60
2019-04-05T02:02:15.046Z,12.65
2019-04-05T02:03:15.043Z,12.60
2019-04-05T02:04:15.033Z,12.50
2019-04-05T02:05:15.033Z,12.42
2019-04-05T02:06:15.027Z,12.37
2019-04-05T02:07:15.022Z,12.50
2019-04-05T02:08:15.017Z,12.53
2019-04-05T02:09:15.014Z,12.53
2019-04-05T02:10:15.008Z,12.54
2019-04-05T02:11:15.004Z,12.46
2019-04-05T02:12:14.997Z,12.53
2019-04-05T02:13:14.991Z,12.46
2019-04-05T02:14:14.986Z,12.46
2019-04-05T02:15:15.029Z,12.36
2019-04-05T02:16:14.978Z,12.43
2019-04-05T02:17:14.975Z,12.45
2019-04-05T02:18:14.970Z,12.37
2019-04-05T02:19:14.961Z,12.28
2019-04-05T02:20:14.960Z,12.27
2019-04-05T02:21:14.951Z,12.25
2019-04-05T02:22:14.948Z,12.20
2019-04-05T02:23:14.942Z,12.22
2019-04-05T02:24:14.942Z,12.15
2019-04-05T02:25:14.937Z,12.25
2019-04-05T02:26:14.927Z,12.20
2019-04-05T02:27:14.926Z,12.21
2019-04-05T02:28:14.919Z,12.22
2019-04-05T02:29:14.914Z,12.24
2019-04-05T02:30:14.920Z,12.17
2019-04-05T02:31:14.911Z,12.17
2019-04-05T02:32:14.902Z,12.13
2019-04-05T02:33:14.891Z,12.13
2019-04-05T02:34:14.889Z,12.04
2019-04-05T02:35:14.915Z,12.06
2019-04-05T02:36:14.880Z,12.15
2019-04-05T02:37:14.871Z,12.00
2019-04-05T02:38:14.868Z,12.00
2019-04-05T02:39:14.861Z,12.03
2019-04-05T02:40:14.871Z,11.97
2019-04-05T02:41:14.849Z,12.00
2019-04-05T02:42:14.846Z,11.95
2019-04-05T02:43:14.850Z,12.13
2019-04-05T02:44:14.838Z,12.09
2019-04-05T02:45:14.834Z,12.06
2019-04-05T02:46:23.658Z,12.12
2019-04-05T02:47:14.823Z,12.10
2019-04-05T02:48:14.815Z,12.09
2019-04-05T02:49:14.809Z,12.06
2019-04-05T02:50:14.810Z,12.07
2019-04-05T02:51:14.797Z,12.04
2019-04-05T02:52:14.794Z,12.03
2019-04-05T02:53:14.788Z,12.00
2019-04-05T02:54:14.781Z,11.88
2019-04-05T02:55:14.774Z,11.97
2019-04-05T02:56:14.774Z,11.99
2019-04-05T02:57:14.767Z,11.95
2019-04-05T02:58:14.765Z,11.87
2019-04-05T02:59:14.764Z,11.88
2019-04-05T03:00:14.752Z,11.87
2019-04-05T03:01:14.747Z,11.86
2019-04-05T03:02:14.750Z,11.87
2019-04-05T03:03:14.752Z,11.90
2019-04-05T03:04:14.730Z,11.88
2019-04-05T03:05:14.729Z,12.00
2019-04-05T03:06:14.720Z,11.87
2019-04-05T03:07:14.715Z,11.94
2019-04-05T03:08:14.710Z,11.84
2019-04-05T03:09:14.709Z,11.94
2019-04-05T03:10:14.703Z,11.97
2019-04-05T03:11:14.689Z,11.90
2019-04-05T03:12:14.689Z,11.88
2019-04-05T03:13:14.681Z,11.87
2019-04-05T03:14:14.676Z,11.81
2019-04-05T03:15:14.678Z,11.83
2019-04-05T03:16:14.665Z,11.80
2019-04-05T03:17:14.659Z,11.81
2019-04-05T03:18:14.656Z,11.87
2019-04-05T03:19:14.649Z,11.70
2019-04-05T03:20:14.640Z,11.77
2019-04-05T03:21:14.640Z,11.65
2019-04-05T03:22:14.640Z,11.73
2019-04-05T03:23:14.629Z,11.75
2019-04-05T03:24:14.635Z,11.73
2019-04-05T03:25:14.616Z,11.75
2019-04-05T03:26:14.612Z,11.72
2019-04-05T03:27:14.609Z,11.60
2019-04-05T03:28:14.600Z,11.62
2019-04-05T03:29:14.600Z,11.52
2019-04-05T03:30:14.592Z,11.54
2019-04-05T03:31:14.594Z,11.54
2019-04-05T03:32:14.578Z,11.47
2019-04-05T03:33:14.575Z,11.48
2019-04-05T03:34:14.573Z,11.48
2019-04-05T03:35:14.577Z,11.43
2019-04-05T03:36:14.555Z,11.36
2019-04-05T03:37:14.552Z,11.40
2019-04-05T03:38:14.547Z,11.35
2019-04-05T03:39:14.556Z,11.36
2019-04-05T03:40:14.535Z,11.35
2019-04-05T03:41:14.528Z,11.40
2019-04-05T03:42:14.531Z,11.36
2019-04-05T03:43:14.524Z,11.35
2019-04-05T03:44:14.519Z,11.37
2019-04-05T03:45:14.518Z,11.32
2019-04-05T03:46:14.502Z,11.25
2019-04-05T03:47:14.497Z,11.27
2019-04-05T03:48:14.492Z,11.22
2019-04-05T03:49:14.485Z,11.26
2019-04-05T03:50:14.482Z,11.23
2019-04-05T03:51:14.474Z,11.25
2019-04-05T03:52:14.461Z,11.22
2019-04-05T03:53:14.463Z,11.15
2019-04-05T03:54:14.457Z,11.14
2019-04-05T03:55:14.448Z,11.22
2019-04-05T03:56:14.445Z,11.25
2019-04-05T03:57:14.441Z,11.18
2019-04-05T03:58:14.431Z,11.23
2019-04-05T03:59:14.428Z,11.22
2019-04-05T04:00:14.425Z,11.23
2019-04-05T04:01:14.419Z,11.19
2019-04-05T04:02:14.436Z,11.19
2019-04-05T04:03:14.406Z,11.18
2019-04-05T04:04:14.393Z,11.22
2019-04-05T04:05:14.394Z,11.10
2019-04-05T04:06:14.393Z,11.11
2019-04-05T04:07:14.384Z,11.15
2019-04-05T04:08:14.375Z,11.18
2019-04-05T04:09:14.369Z,11.11
2019-04-05T04:10:14.367Z,11.05
2019-04-05T04:11:14.362Z,11.07
2019-04-05T04:12:14.357Z,11.12
2019-04-05T04:13:14.357Z,11.12
2019-04-05T04:14:14.376Z,11.12
2019-04-05T04:15:14.896Z,11.10
2019-04-05T04:16:14.332Z,11.12
2019-04-05T04:17:14.329Z,11.15
2019-04-05T04:18:14.322Z,11.12
2019-04-05T04:19:14.312Z,11.05
2019-04-05T04:20:14.308Z,11.02
2019-04-05T04:21:14.299Z,11.04
2019-04-05T04:22:14.325Z,10.94
2019-04-05T04:23:14.298Z,10.94
2019-04-05T04:24:14.307Z,10.97
2019-04-05T04:25:14.276Z,10.94
2019-04-05T04:26:14.269Z,10.89
2019-04-05T04:27:14.267Z,10.87
2019-04-05T04:28:14.261Z,10.86
2019-04-05T04:29:14.256Z,10.87
2019-04-05T04:30:14.251Z,10.94
2019-04-05T04:31:14.244Z,10.87
2019-04-05T04:32:14.235Z,10.93
2019-04-05T04:33:14.229Z,10.93
2019-04-05T04:34:14.227Z,10.89
2019-04-05T04:35:14.218Z,10.96
2019-04-05T04:36:14.214Z,10.94
2019-04-05T04:37:14.209Z,10.96
2019-04-05T04:38:14.206Z,10.92
2019-04-05T04:39:14.202Z,10.92
2019-04-05T04:40:14.189Z,10.92
2019-04-05T04:41:14.183Z,10.86
2019-04-05T04:42:14.201Z,10.90
2019-04-05T04:43:14.172Z,10.87
2019-04-05T04:44:14.170Z,10.87
2019-04-05T04:45:14.160Z,10.84
2019-04-05T04:46:14.155Z,10.92
2019-04-05T04:47:25.670Z,10.87
2019-04-05T04:48:14.141Z,10.90
2019-04-05T04:49:14.137Z,10.87
2019-04-05T04:50:14.136Z,10.86
2019-04-05T04:51:14.129Z,10.90
2019-04-05T04:52:14.119Z,10.72
2019-04-05T04:53:14.115Z,10.89
2019-04-05T04:54:14.110Z,10.78
2019-04-05T04:55:14.101Z,10.76
2019-04-05T04:56:14.099Z,10.84
2019-04-05T04:57:14.092Z,10.76
2019-04-05T04:58:14.088Z,10.75
2019-04-05T04:59:14.077Z,10.69
2019-04-05T05:00:14.071Z,10.74
2019-04-05T05:01:14.068Z,10.69
2019-04-05T05:02:14.058Z,10.74
2019-04-05T05:03:14.059Z,10.71
2019-04-05T05:04:14.049Z,10.76
2019-04-05T05:05:14.043Z,10.86
2019-04-05T05:06:14.040Z,10.78
2019-04-05T05:07:14.029Z,10.90
2019-04-05T05:08:14.024Z,10.86
2019-04-05T05:09:14.017Z,10.87
2019-04-05T05:10:14.015Z,10.86
2019-04-05T05:11:15.148Z,10.90
2019-04-05T05:12:14.007Z,10.90
2019-04-05T05:13:13.995Z,10.94
2019-04-05T05:14:13.995Z,10.89
2019-04-05T05:15:13.984Z,10.96
2019-04-05T05:16:13.977Z,10.99
2019-04-05T05:17:13.974Z,11.00
2019-04-05T05:18:13.978Z,11.11
2019-04-05T05:19:13.961Z,11.08
2019-04-05T05:20:13.951Z,11.17
2019-04-05T05:21:13.952Z,11.22
2019-04-05T05:22:13.943Z,11.17
2019-04-05T05:23:13.944Z,11.23
2019-04-05T05:24:13.954Z,11.29
2019-04-05T05:25:13.925Z,11.37
2019-04-05T05:26:13.922Z,11.40
2019-04-05T05:27:13.915Z,11.41
2019-04-05T05:28:13.908Z,11.44
2019-04-05T05:29:13.904Z,11.43
2019-04-05T05:30:13.899Z,11.50
2019-04-05T05:31:13.895Z,11.55
2019-04-05T05:32:13.887Z,11.51
2019-04-05T05:33:13.889Z,11.63
2019-04-05T05:34:13.878Z,11.69
2019-04-05T05:35:13.872Z,11.95
2019-04-05T05:36:13.866Z,12.07
2019-04-05T05:37:13.898Z,12.28
2019-04-05T05:38:13.859Z,12.73
2019-04-05T05:39:13.850Z,13.15
2019-04-05T05:40:13.843Z,13.50
2019-04-05T05:41:13.840Z,13.77
2019-04-05T05:42:13.834Z,13.63
2019-04-05T05:43:13.828Z,13.72
2019-04-05T05:44:13.829Z,13.95
2019-04-05T05:45:13.822Z,14.12
2019-04-05T05:46:13.814Z,14.58
2019-04-05T05:47:13.812Z,14.37
2019-04-05T05:48:13.802Z,14.70
2019-04-05T05:49:13.803Z,14.68
2019-04-05T05:50:13.801Z,14.40
2019-04-05T05:51:13.793Z,14.50
2019-04-05T05:52:13.789Z,14.54
2019-04-05T05:53:13.782Z,15.03
2019-04-05T05:54:13.777Z,14.86
2019-04-05T05:55:13.773Z,14.85
2019-04-05T05:56:13.768Z,15.19
2019-04-05T05:57:13.765Z,15.10
2019-04-05T05:58:13.762Z,15.51
2019-04-05T05:59:13.759Z,15.86
2019-04-05T06:00:13.750Z,16.24
2019-04-05T06:01:13.749Z,16.54
2019-04-05T06:02:13.741Z,16.23
2019-04-05T06:03:16.481Z,16.51
2019-04-05T06:04:13.742Z,16.23
2019-04-05T06:05:13.739Z,16.08
2019-04-05T06:06:13.729Z,16.24
2019-04-05T06:07:13.724Z,16.49
2019-04-05T06:08:13.724Z,16.58
2019-04-05T06:09:13.726Z,17.11
2019-04-05T06:10:13.725Z,17.57
2019-04-05T06:11:13.714Z,17.72
2019-04-05T06:12:13.716Z,18.00
2019-04-05T06:13:13.717Z,18.15
2019-04-05T06:14:13.708Z,18.44
2019-04-05T06:15:13.708Z,18.08
2019-04-05T06:16:13.704Z,18.04
2019-04-05T06:17:13.699Z,18.19
2019-04-05T06:18:13.698Z,18.26
2019-04-05T06:19:13.697Z,18.56
2019-04-05T06:20:13.697Z,18.78
2019-04-05T06:21:13.695Z,19.15
2019-04-05T06:22:13.693Z,19.45
2019-04-05T06:23:13.690Z,19.76
2019-04-05T06:24:13.690Z,20.13
2019-04-05T06:25:13.697Z,20.36
2019-04-05T06:26:13.684Z,20.36
2019-04-05T06:27:13.683Z,20.37
2019-04-05T06:28:13.689Z,20.62
2019-04-05T06:29:13.679Z,20.59
2019-04-05T06:30:13.681Z,20.67
2019-04-05T06:31:13.676Z,21.02
2019-04-05T06:32:13.677Z,20.82
2019-04-05T06:33:13.677Z,20.63
2019-04-05T06:34:13.677Z,20.66
2019-04-05T06:35:13.681Z,20.50
2019-04-05T06:36:13.675Z,20.40
2019-04-05T06:37:13.676Z,20.21
2019-04-05T06:38:13.678Z,20.39
2019-04-05T06:39:13.674Z,20.40
2019-04-05T06:40:13.674Z,20.04
2019-04-05T06:41:13.673Z,20.02
2019-04-05T06:42:13.671Z,19.86
2019-04-05T06:43:13.672Z,20.04
2019-04-05T06:44:13.670Z,20.00
2019-04-05T06:45:13.669Z,20.03
2019-04-05T06:46:13.678Z,20.18
2019-04-05T06:47:13.671Z,20.43
2019-04-05T06:48:19.330Z,20.47
2019-04-05T06:49:13.670Z,20.50
2019-04-05T06:50:13.669Z,20.48
2019-04-05T06:51:13.665Z,20.74
2019-04-05T06:52:13.669Z,21.18
2019-04-05T06:53:13.664Z,21.33
2019-04-05T06:54:13.669Z,21.45
2019-04-05T06:55:13.671Z,21.62
2019-04-05T06:56:13.670Z,21.58
2019-04-05T06:57:13.669Z,21.36
2019-04-05T06:58:19.591Z,21.75
2019-04-05T06:59:13.667Z,22.18
2019-04-05T07:00:13.672Z,22.38
2019-04-05T07:01:13.669Z,22.62
2019-04-05T07:02:13.670Z,22.98
2019-04-05T07:03:13.828Z,22.88
2019-04-05T07:04:13.673Z,22.68
2019-04-05T07:05:13.674Z,22.83
2019-04-05T07:06:13.676Z,23.02
2019-04-05T07:07:13.676Z,23.06
2019-04-05T07:08:13.674Z,22.99
2019-04-05T07:09:13.681Z,23.03
2019-04-05T07:10:13.682Z,22.65
2019-04-05T07:11:13.677Z,22.70
2019-04-05T07:12:13.678Z,22.55
2019-04-05T07:13:13.678Z,22.59
2019-04-05T07:14:13.680Z,22.54
2019-04-05T07:15:13.685Z,22.75
2019-04-05T07:16:13.682Z,22.83
2019-04-05T07:17:13.684Z,22.75
2019-04-05T07:18:13.684Z,22.59
2019-04-05T07:19:13.688Z,22.94
2019-04-05T07:20:13.688Z,23.18
2019-04-05T07:21:13.690Z,23.18
2019-04-05T07:22:13.689Z,23.34
2019-04-05T07:23:13.694Z,22.99
2019-04-05T07:24:13.701Z,23.20
2019-04-05T07:25:13.695Z,22.80
2019-04-05T07:26:13.697Z,22.84
2019-04-05T07:27:13.698Z,22.96
2019-04-05T07:28:13.705Z,22.69
2019-04-05T07:29:13.708Z,22.47
2019-04-05T07:30:13.704Z,21.96
2019-04-05T07:31:13.706Z,21.66
2019-04-05T07:32:13.705Z,21.06
2019-04-05T07:33:13.708Z,20.39
2019-04-05T07:34:13.712Z,19.82
2019-04-05T07:35:13.716Z,19.33
2019-04-05T07:36:13.712Z,18.99
2019-04-05T07:37:13.716Z,18.71
2019-04-05T07:38:13.713Z,18.53
2019-04-05T07:39:13.718Z,18.19
2019-04-05T07:40:13.721Z,18.01
2019-04-05T07:41:13.719Z,18.00
2019-04-05T07:42:13.718Z,17.92
2019-04-05T07:43:13.722Z,17.63
2019-04-05T07:44:13.718Z,17.29
2019-04-05T07:45:13.720Z,17.14
2019-04-05T07:46:13.729Z,17.05
2019-04-05T07:47:13.723Z,17.02
2019-04-05T07:48:13.723Z,16.91
2019-04-05T07:49:13.721Z,16.74
2019-04-05T07:50:13.720Z,16.72
2019-04-05T07:51:13.721Z,16.61
2019-04-05T07:52:13.721Z,16.36
2019-04-05T07:53:13.727Z,16.08
2019-04-05T07:54:13.719Z,16.04
2019-04-05T07:55:13.721Z,15.95
2019-04-05T07:56:13.722Z,15.83
2019-04-05T07:57:13.746Z,15.77
2019-04-05T07:58:13.720Z,15.92
2019-04-05T07:59:13.719Z,15.86
2019-04-05T08:00:13.716Z,15.86
2019-04-05T08:01:13.723Z,15.65
2019-04-05T08:02:13.720Z,15.10
2019-04-05T08:03:13.717Z,14.85
2019-04-05T08:04:13.713Z,14.88
2019-04-05T08:05:13.713Z,14.79
2019-04-05T08:06:13.714Z,14.63
2019-04-05T08:07:13.711Z,14.59
2019-04-05T08:08:13.709Z,14.65
2019-04-05T08:09:13.715Z,14.48
2019-04-05T08:10:13.709Z,14.51
2019-04-05T08:11:13.712Z,14.50
2019-04-05T08:12:13.704Z,14.11
2019-04-05T08:13:13.698Z,13.70
2019-04-05T08:14:13.727Z,13.74
2019-04-05T08:15:13.700Z,13.68
2019-04-05T08:16:13.696Z,13.67
2019-04-05T08:17:13.703Z,13.68
2019-04-05T08:18:13.697Z,13.81
2019-04-05T08:19:13.693Z,13.90
2019-04-05T08:20:13.692Z,13.97
2019-04-05T08:21:13.688Z,14.23
2019-04-05T08:22:13.689Z,14.26
2019-04-05T08:23:13.688Z,14.14
2019-04-05T08:24:13.690Z,14.03
2019-04-05T08:25:13.681Z,13.90
2019-04-05T08:26:13.679Z,13.72
2019-04-05T08:27:13.683Z,13.54
2019-04-05T08:28:13.674Z,13.28
2019-04-05T08:29:13.674Z,13.30
2019-04-05T08:30:13.672Z,13.28
2019-04-05T08:31:14.657Z,13.13
2019-04-05T08:32:15.026Z,13.11
2019-04-05T08:33:13.668Z,13.09
2019-04-05T08:34:13.660Z,13.15
2019-04-05T08:35:13.667Z,13.28
2019-04-05T08:36:13.656Z,13.08
2019-04-05T08:37:13.657Z,13.03
2019-04-05T08:38:13.654Z,12.76
2019-04-05T08:39:13.651Z,12.73
2019-04-05T08:40:13.647Z,12.72
2019-04-05T08:41:13.644Z,12.62
2019-04-05T08:42:13.645Z,12.85
2019-04-05T08:43:13.639Z,12.93
2019-04-05T08:44:13.636Z,13.00
2019-04-05T08:45:13.631Z,13.11
2019-04-05T08:46:13.628Z,13.23
2019-04-05T08:47:13.629Z,13.28
2019-04-05T08:48:13.625Z,13.12
2019-04-05T08:49:13.620Z,13.12
2019-04-05T08:50:13.619Z,13.01
2019-04-05T08:51:13.617Z,12.79
2019-04-05T08:52:13.611Z,12.85
2019-04-05T08:53:13.609Z,12.98
2019-04-05T08:54:13.608Z,12.72
2019-04-05T08:55:13.632Z,12.55
2019-04-05T08:56:13.600Z,12.06
2019-04-05T08:57:13.596Z,11.94
2019-04-05T08:58:13.595Z,12.07
2019-04-05T08:59:13.591Z,12.09
2019-04-05T09:00:13.587Z,12.13
2019-04-05T09:01:13.583Z,12.17
2019-04-05T09:02:13.585Z,12.46
2019-04-05T09:03:13.580Z,12.65
2019-04-05T09:04:13.585Z,12.60
2019-04-05T09:05:13.575Z,12.78
2019-04-05T09:06:13.568Z,12.79
2019-04-05T09:07:13.566Z,12.86
2019-04-05T09:08:13.560Z,13.12
2019-04-05T09:09:13.562Z,13.11
2019-04-05T09:10:13.556Z,13.11
2019-04-05T09:11:13.557Z,13.19
2019-04-05T09:12:13.555Z,13.18
2019-04-05T09:13:13.545Z,13.19
2019-04-05T09:14:13.542Z,13.13
2019-04-05T09:15:13.540Z,13.09
2019-04-05T09:16:13.537Z,13.11
2019-04-05T09:17:13.535Z,12.78
2019-04-05T09:18:13.530Z,12.98
2019-04-05T09:19:23.005Z,13.12
2019-04-05T09:20:13.526Z,13.20
2019-04-05T09:21:13.515Z,13.18
2019-04-05T09:22:13.531Z,13.31
2019-04-05T09:23:13.510Z,13.11
2019-04-05T09:24:13.512Z,13.16
2019-04-05T09:25:13.510Z,13.50
2019-04-05T09:26:13.505Z,13.79
2019-04-05T09:27:13.501Z,14.07
2019-04-05T09:28:13.495Z,14.20
2019-04-05T09:29:13.497Z,13.95
2019-04-05T09:30:13.492Z,13.50
2019-04-05T09:31:13.494Z,13.53
2019-04-05T09:32:13.488Z,13.28
2019-04-05T09:33:13.483Z,12.94
2019-04-05T09:34:13.480Z,12.83
2019-04-05T09:35:13.474Z,12.90
2019-04-05T09:36:13.477Z,12.93
2019-04-05T09:37:13.474Z,12.87
2019-04-05T09:38:13.466Z,12.86
2019-04-05T09:39:15.711Z,12.93
2019-04-05T09:40:13.471Z,13.11
2019-04-05T09:41:13.459Z,13.12
2019-04-05T09:42:13.460Z,12.83
2019-04-05T09:43:13.454Z,12.90
2019-04-05T09:44:13.448Z,13.00
2019-04-05T09:45:13.447Z,13.11
2019-04-05T09:46:13.446Z,13.09
2019-04-05T09:47:13.443Z,13.13
2019-04-05T09:48:13.437Z,13.01
2019-04-05T09:49:13.446Z,12.90
2019-04-05T09:50:13.434Z,12.90
2019-04-05T09:51:13.433Z,12.90
2019-04-05T09:52:13.425Z,12.60
2019-04-05T09:53:13.425Z,12.61
2019-04-05T09:54:13.420Z,12.70
2019-04-05T09:55:13.415Z,12.62
2019-04-05T09:56:13.413Z,12.67
2019-04-05T09:57:13.410Z,12.67
2019-04-05T09:58:13.411Z,12.85
2019-04-05T09:59:13.413Z,12.65
2019-04-05T10:00:13.401Z,12.65
2019-04-05T10:01:13.398Z,12.53
2019-04-05T10:02:13.395Z,12.55
2019-04-05T10:03:13.450Z,12.62
2019-04-05T10:04:13.392Z,12.62
2019-04-05T10:05:13.387Z,12.62
2019-04-05T10:06:13.381Z,12.39
2019-04-05T10:07:13.382Z,12.43
2019-04-05T10:08:13.377Z,12.39
2019-04-05T10:09:13.374Z,12.43
2019-04-05T10:10:13.368Z,12.39
2019-04-05T10:11:13.366Z,12.37
2019-04-05T10:12:13.361Z,12.18
2019-04-05T10:13:13.358Z,12.35
2019-04-05T10:14:13.355Z,12.31
2019-04-05T10:15:13.349Z,12.20
2019-04-05T10:16:13.351Z,12.21
2019-04-05T10:17:13.344Z,12.27
2019-04-05T10:18:13.351Z,12.35
2019-04-05T10:19:13.338Z,12.25
2019-04-05T10:20:13.336Z,12.21
2019-04-05T10:21:13.335Z,12.45
2019-04-05T10:22:13.326Z,12.54
2019-04-05T10:23:13.323Z,12.53
2019-04-05T10:24:13.317Z,12.40
2019-04-05T10:25:13.318Z,12.45
2019-04-05T10:26:13.317Z,12.53
2019-04-05T10:27:13.316Z,12.43
2019-04-05T10:28:13.304Z,12.47
2019-04-05T10:29:13.305Z,12.55
2019-04-05T10:30:13.299Z,12.62
2019-04-05T10:31:13.305Z,12.62
2019-04-05T10:32:13.294Z,12.55
2019-04-05T10:33:13.291Z,12.53
2019-04-05T10:34:13.285Z,12.45
2019-04-05T10:35:13.283Z,12.22
2019-04-05T10:36:13.275Z,12.07
2019-04-05T10:37:13.298Z,12.07
2019-04-05T10:38:13.273Z,11.94
2019-04-05T10:39:13.269Z,12.10
2019-04-05T10:40:13.325Z,11.87
2019-04-05T10:41:13.265Z,11.97
2019-04-05T10:42:13.254Z,12.07
2019-04-05T10:43:13.251Z,12.18
2019-04-05T10:44:13.247Z,12.22
2019-04-05T10:45:13.245Z,12.13
2019-04-05T10:46:13.245Z,12.35
2019-04-05T10:47:13.235Z,12.35
2019-04-05T10:48:13.232Z,12.28
2019-04-05T10:49:15.088Z,12.42
2019-04-05T10:50:13.225Z,12.24
2019-04-05T10:51:13.218Z,12.31
2019-04-05T10:52:13.221Z,12.31
2019-04-05T10:53:13.256Z,12.45
2019-04-05T10:54:13.213Z,12.53
2019-04-05T10:55:13.206Z,12.17
2019-04-05T10:56:13.203Z,12.15
2019-04-05T10:57:13.199Z,12.20
2019-04-05T10:58:13.194Z,12.22
2019-04-05T10:59:13.193Z,12.13
2019-04-05T11:00:13.184Z,12.22
2019-04-05T11:01:13.198Z,12.35
2019-04-05T11:02:13.176Z,12.42
2019-04-05T11:03:13.187Z,12.39
2019-04-05T11:04:13.173Z,12.32
2019-04-05T11:05:13.166Z,12.43
2019-04-05T11:06:13.166Z,12.46
2019-04-05T11:07:13.163Z,12.49
2019-04-05T11:08:13.158Z,12.58
2019-04-05T11:09:13.151Z,12.67
2019-04-05T11:10:13.157Z,12.58
2019-04-05T11:11:13.143Z,12.35
2019-04-05T11:12:13.137Z,12.31
2019-04-05T11:13:13.148Z,12.39
2019-04-05T11:14:14.190Z,12.37
2019-04-05T11:15:15.142Z,12.45
2019-04-05T11:16:13.131Z,12.62
2019-04-05T11:17:13.132Z,12.64
2019-04-05T11:18:13.126Z,12.65
2019-04-05T11:19:13.114Z,12.61
2019-04-05T11:20:21.242Z,12.62
2019-04-05T11:21:13.109Z,12.67
2019-04-05T11:22:13.103Z,12.67
2019-04-05T11:23:13.128Z,12.75
2019-04-05T11:24:13.091Z,12.68
2019-04-05T11:25:13.089Z,12.83
2019-04-05T11:26:13.089Z,12.85
2019-04-05T11:27:13.083Z,12.87
2019-04-05T11:28:13.083Z,12.95
2019-04-05T11:29:14.526Z,12.93
2019-04-05T11:30:13.131Z,12.98
2019-04-05T11:31:13.073Z,12.97
2019-04-05T11:32:13.065Z,13.11
2019-04-05T11:33:13.102Z,13.00
2019-04-05T11:34:13.058Z,13.00
2019-04-05T11:35:15.073Z,13.04
2019-04-05T11:36:13.825Z,13.11
2019-04-05T11:37:13.052Z,13.11
2019-04-05T11:38:13.072Z,13.16
2019-04-05T11:39:13.038Z,13.19
2019-04-05T11:40:13.039Z,13.35
2019-04-05T11:41:13.030Z,13.37
2019-04-05T11:42:13.030Z,13.37
2019-04-05T11:43:13.040Z,13.47
2019-04-05T11:44:13.024Z,13.39
2019-04-05T11:45:13.021Z,13.35
2019-04-05T11:46:13.014Z,13.47
2019-04-05T11:47:13.014Z,13.56
2019-04-05T11:48:13.010Z,13.52
2019-04-05T11:49:13.003Z,13.56
2019-04-05T11:50:13.004Z,13.65
2019-04-05T11:51:13.000Z,13.39
2019-04-05T11:52:12.991Z,13.37
2019-04-05T11:53:12.994Z,13.19
2019-04-05T11:54:13.843Z,13.38
2019-04-05T11:55:12.984Z,13.31
2019-04-05T11:56:14.899Z,13.59
2019-04-05T11:57:12.997Z,13.53
2019-04-05T11:58:12.979Z,13.62
2019-04-05T11:59:13.379Z,13.63
2019-04-05T12:00:12.968Z,13.54
2019-04-05T12:01:12.968Z,13.68
2019-04-05T12:02:12.965Z,13.78
2019-04-05T12:03:12.964Z,13.92
2019-04-05T12:04:12.961Z,14.14
2019-04-05T12:05:12.956Z,14.14
2019-04-05T12:06:12.952Z,14.20
2019-04-05T12:07:12.951Z,14.07
2019-04-05T12:08:12.946Z,14.20
2019-04-05T12:09:12.943Z,14.04
2019-04-05T12:10:12.944Z,14.15
2019-04-05T12:11:12.941Z,14.14
2019-04-05T12:12:12.932Z,14.08
2019-04-05T12:13:12.935Z,14.04
2019-04-05T12:14:12.931Z,14.08
2019-04-05T12:15:12.927Z,14.23
2019-04-05T12:16:12.923Z,14.25
2019-04-05T12:17:12.923Z,14.30
2019-04-05T12:18:16.694Z,14.41
2019-04-05T12:19:12.941Z,14.50
2019-04-05T12:20:12.914Z,14.69
2019-04-05T12:21:12.913Z,14.73
2019-04-05T12:22:12.910Z,14.94
2019-04-05T12:23:12.909Z,15.02
2019-04-05T12:24:12.901Z,15.10
2019-04-05T12:25:12.902Z,15.14
2019-04-05T12:26:12.902Z,15.14
2019-04-05T12:27:12.900Z,15.07
2019-04-05T12:28:12.896Z,14.79
2019-04-05T12:29:12.892Z,14.70
2019-04-05T12:30:12.889Z,14.53
2019-04-05T12:31:12.892Z,14.53
2019-04-05T12:32:13.525Z,14.58
2019-04-05T12:33:14.711Z,14.51
2019-04-05T12:34:12.878Z,14.70
2019-04-05T12:35:12.880Z,14.70
2019-04-05T12:36:12.874Z,14.73
2019-04-05T12:37:12.877Z,14.73
2019-04-05T12:38:12.870Z,14.82
2019-04-05T12:39:12.870Z,14.96
2019-04-05T12:40:14.812Z,14.97
2019-04-05T12:41:12.863Z,15.03
2019-04-05T12:42:13.065Z,15.03
2019-04-05T12:43:13.589Z,15.09
2019-04-05T12:44:15.253Z,15.15
2019-04-05T12:45:15.312Z,15.11
2019-04-05T12:46:16.117Z,14.97
2019-04-05T12:47:13.963Z,15.07
2019-04-05T12:48:13.727Z,15.06
2019-04-05T12:49:13.399Z,15.00
2019-04-05T12:50:14.641Z,14.99
2019-04-05T12:51:15.421Z,14.86
2019-04-05T12:52:22.562Z,15.00